sensor_id;sensor_type;location;lat;lon;timestamp;temperature;humidity
48551;DHT22;34397;51.176;6.738;2023-05-23T00:01:17;18.00;62.70
48551;DHT22;34397;51.176;6.738;2023-05-23T00:03:48;18.00;62.90
48551;DHT22;34397;51.176;6.738;2023-05-23T00:06:22;17.90;62.80
48551;DHT22;34397;51.176;6.738;2023-05-23T00:08:54;17.90;62.90
48551;DHT22;34397;51.176;6.738;2023-05-23T00:11:27;17.90;62.90
48551;DHT22;34397;51.176;6.738;2023-05-23T00:14:00;17.90;63.20
48551;DHT22;34397;51.176;6.738;2023-05-23T00:16:32;17.90;63.40
48551;DHT22;34397;51.176;6.738;2023-05-23T00:19:04;17.90;63.40
48551;DHT22;34397;51.176;6.738;2023-05-23T00:21:36;17.90;63.60
48551;DHT22;34397;51.176;6.738;2023-05-23T00:24:08;17.90;63.80
48551;DHT22;34397;51.176;6.738;2023-05-23T00:26:41;17.90;63.80
48551;DHT22;34397;51.176;6.738;2023-05-23T00:29:13;18.00;64.10
48551;DHT22;34397;51.176;6.738;2023-05-23T00:31:46;18.00;63.60
48551;DHT22;34397;51.176;6.738;2023-05-23T00:34:18;17.90;63.70
48551;DHT22;34397;51.176;6.738;2023-05-23T00:36:50;17.90;63.90
48551;DHT22;34397;51.176;6.738;2023-05-23T00:39:23;17.90;64.20
48551;DHT22;34397;51.176;6.738;2023-05-23T00:41:56;17.90;63.90
48551;DHT22;34397;51.176;6.738;2023-05-23T00:44:28;17.90;63.90
48551;DHT22;34397;51.176;6.738;2023-05-23T00:47:00;17.90;64.00
48551;DHT22;34397;51.176;6.738;2023-05-23T00:49:33;17.80;63.90
48551;DHT22;34397;51.176;6.738;2023-05-23T00:52:05;17.80;64.10
48551;DHT22;34397;51.176;6.738;2023-05-23T00:54:38;17.70;64.40
48551;DHT22;34397;51.176;6.738;2023-05-23T00:57:11;17.70;63.90
48551;DHT22;34397;51.176;6.738;2023-05-23T00:59:44;17.70;64.40
48551;DHT22;34397;51.176;6.738;2023-05-23T01:02:17;17.70;64.90
48551;DHT22;34397;51.176;6.738;2023-05-23T01:04:50;17.70;63.50
48551;DHT22;34397;51.176;6.738;2023-05-23T01:07:23;17.70;64.80
48551;DHT22;34397;51.176;6.738;2023-05-23T01:09:56;17.80;64.60
48551;DHT22;34397;51.176;6.738;2023-05-23T01:12:40;17.80;63.80
48551;DHT22;34397;51.176;6.738;2023-05-23T01:15:18;17.80;63.40
48551;DHT22;34397;51.176;6.738;2023-05-23T01:17:54;17.90;63.60
48551;DHT22;34397;51.176;6.738;2023-05-23T01:20:34;17.90;63.40
48551;DHT22;34397;51.176;6.738;2023-05-23T01:23:41;17.90;62.30
48551;DHT22;34397;51.176;6.738;2023-05-23T01:26:35;17.90;62.70
48551;DHT22;34397;51.176;6.738;2023-05-23T01:29:21;18.00;63.20
48551;DHT22;34397;51.176;6.738;2023-05-23T01:31:57;18.00;61.80
48551;DHT22;34397;51.176;6.738;2023-05-23T01:34:30;18.00;61.70
48551;DHT22;34397;51.176;6.738;2023-05-23T01:37:07;17.90;62.30
48551;DHT22;34397;51.176;6.738;2023-05-23T01:39:39;17.90;62.20
48551;DHT22;34397;51.176;6.738;2023-05-23T01:42:13;17.90;63.10
48551;DHT22;34397;51.176;6.738;2023-05-23T01:44:46;17.80;61.40
48551;DHT22;34397;51.176;6.738;2023-05-23T01:47:18;17.80;62.60
48551;DHT22;34397;51.176;6.738;2023-05-23T01:49:51;17.80;62.80
48551;DHT22;34397;51.176;6.738;2023-05-23T01:52:24;17.80;62.80
48551;DHT22;34397;51.176;6.738;2023-05-23T01:54:58;17.70;62.30
48551;DHT22;34397;51.176;6.738;2023-05-23T01:57:31;17.70;62.40
48551;DHT22;34397;51.176;6.738;2023-05-23T02:00:06;17.60;62.10
48551;DHT22;34397;51.176;6.738;2023-05-23T02:02:41;17.60;61.90
48551;DHT22;34397;51.176;6.738;2023-05-23T02:05:13;17.60;62.60
48551;DHT22;34397;51.176;6.738;2023-05-23T02:07:45;17.50;62.60
48551;DHT22;34397;51.176;6.738;2023-05-23T02:10:17;17.50;62.00
48551;DHT22;34397;51.176;6.738;2023-05-23T02:12:49;17.40;62.60
48551;DHT22;34397;51.176;6.738;2023-05-23T02:15:22;17.40;63.60
48551;DHT22;34397;51.176;6.738;2023-05-23T02:17:54;17.40;62.90
48551;DHT22;34397;51.176;6.738;2023-05-23T02:20:26;17.40;63.80
48551;DHT22;34397;51.176;6.738;2023-05-23T02:22:58;17.40;62.80
48551;DHT22;34397;51.176;6.738;2023-05-23T02:25:30;17.50;63.20
48551;DHT22;34397;51.176;6.738;2023-05-23T02:28:02;17.40;62.70
48551;DHT22;34397;51.176;6.738;2023-05-23T02:30:35;17.40;62.70
48551;DHT22;34397;51.176;6.738;2023-05-23T02:33:07;17.30;63.20
48551;DHT22;34397;51.176;6.738;2023-05-23T02:35:39;17.30;63.20
48551;DHT22;34397;51.176;6.738;2023-05-23T02:38:11;17.30;62.80
48551;DHT22;34397;51.176;6.738;2023-05-23T02:40:43;17.30;63.00
48551;DHT22;34397;51.176;6.738;2023-05-23T02:43:14;17.30;62.90
48551;DHT22;34397;51.176;6.738;2023-05-23T02:45:48;17.30;63.10
48551;DHT22;34397;51.176;6.738;2023-05-23T02:48:19;17.30;63.20
48551;DHT22;34397;51.176;6.738;2023-05-23T02:50:51;17.20;63.90
48551;DHT22;34397;51.176;6.738;2023-05-23T02:53:23;17.10;63.50
48551;DHT22;34397;51.176;6.738;2023-05-23T02:55:55;17.10;64.10
48551;DHT22;34397;51.176;6.738;2023-05-23T02:58:27;17.00;64.50
48551;DHT22;34397;51.176;6.738;2023-05-23T03:01:01;17.00;64.50
48551;DHT22;34397;51.176;6.738;2023-05-23T03:03:33;17.00;64.40
48551;DHT22;34397;51.176;6.738;2023-05-23T03:06:05;16.90;64.70
48551;DHT22;34397;51.176;6.738;2023-05-23T03:08:40;16.80;64.80
48551;DHT22;34397;51.176;6.738;2023-05-23T03:11:12;16.80;65.10
48551;DHT22;34397;51.176;6.738;2023-05-23T03:13:44;16.80;65.20
48551;DHT22;34397;51.176;6.738;2023-05-23T03:16:17;16.70;65.20
48551;DHT22;34397;51.176;6.738;2023-05-23T03:18:49;16.70;65.30
48551;DHT22;34397;51.176;6.738;2023-05-23T03:21:21;16.70;65.40
48551;DHT22;34397;51.176;6.738;2023-05-23T03:23:53;16.60;65.70
48551;DHT22;34397;51.176;6.738;2023-05-23T03:26:25;16.70;66.30
48551;DHT22;34397;51.176;6.738;2023-05-23T03:28:57;16.70;65.50
48551;DHT22;34397;51.176;6.738;2023-05-23T03:31:30;16.70;65.40
48551;DHT22;34397;51.176;6.738;2023-05-23T03:34:02;16.60;65.70
48551;DHT22;34397;51.176;6.738;2023-05-23T03:36:35;16.70;65.90
48551;DHT22;34397;51.176;6.738;2023-05-23T03:39:08;16.70;65.90
48551;DHT22;34397;51.176;6.738;2023-05-23T03:41:40;16.70;65.80
48551;DHT22;34397;51.176;6.738;2023-05-23T03:44:12;16.70;65.70
48551;DHT22;34397;51.176;6.738;2023-05-23T03:46:45;16.80;64.80
48551;DHT22;34397;51.176;6.738;2023-05-23T03:49:17;16.70;64.50
48551;DHT22;34397;51.176;6.738;2023-05-23T03:51:49;16.70;64.60
48551;DHT22;34397;51.176;6.738;2023-05-23T03:54:21;16.60;64.60
48551;DHT22;34397;51.176;6.738;2023-05-23T03:56:53;16.50;64.50
48551;DHT22;34397;51.176;6.738;2023-05-23T03:59:24;16.50;65.10
48551;DHT22;34397;51.176;6.738;2023-05-23T04:01:58;16.40;65.20
48551;DHT22;34397;51.176;6.738;2023-05-23T04:04:30;16.30;65.30
48551;DHT22;34397;51.176;6.738;2023-05-23T04:07:02;16.30;65.50
48551;DHT22;34397;51.176;6.738;2023-05-23T04:09:35;16.20;65.70
48551;DHT22;34397;51.176;6.738;2023-05-23T04:12:07;16.20;66.00
48551;DHT22;34397;51.176;6.738;2023-05-23T04:14:40;16.20;66.20
48551;DHT22;34397;51.176;6.738;2023-05-23T04:17:13;16.20;66.60
48551;DHT22;34397;51.176;6.738;2023-05-23T04:19:45;16.10;66.90
48551;DHT22;34397;51.176;6.738;2023-05-23T04:22:17;16.10;66.90
48551;DHT22;34397;51.176;6.738;2023-05-23T04:24:49;16.10;67.30
48551;DHT22;34397;51.176;6.738;2023-05-23T04:27:20;16.10;67.60
48551;DHT22;34397;51.176;6.738;2023-05-23T04:29:55;16.00;67.40
48551;DHT22;34397;51.176;6.738;2023-05-23T04:32:29;16.00;67.90
48551;DHT22;34397;51.176;6.738;2023-05-23T04:35:01;15.90;67.90
48551;DHT22;34397;51.176;6.738;2023-05-23T04:37:33;15.90;68.20
48551;DHT22;34397;51.176;6.738;2023-05-23T04:40:05;15.90;68.50
48551;DHT22;34397;51.176;6.738;2023-05-23T04:42:38;15.90;68.30
48551;DHT22;34397;51.176;6.738;2023-05-23T04:45:11;15.90;68.10
48551;DHT22;34397;51.176;6.738;2023-05-23T04:47:45;16.00;68.20
48551;DHT22;34397;51.176;6.738;2023-05-23T04:50:17;16.00;68.10
48551;DHT22;34397;51.176;6.738;2023-05-23T04:52:51;16.00;68.40
48551;DHT22;34397;51.176;6.738;2023-05-23T04:55:23;16.10;68.50
48551;DHT22;34397;51.176;6.738;2023-05-23T04:57:55;16.20;68.40
48551;DHT22;34397;51.176;6.738;2023-05-23T05:00:27;16.20;67.90
48551;DHT22;34397;51.176;6.738;2023-05-23T05:03:01;16.30;67.50
48551;DHT22;34397;51.176;6.738;2023-05-23T05:05:32;16.30;67.20
48551;DHT22;34397;51.176;6.738;2023-05-23T05:08:04;16.30;67.30
48551;DHT22;34397;51.176;6.738;2023-05-23T05:10:38;16.30;67.40
48551;DHT22;34397;51.176;6.738;2023-05-23T05:13:10;16.30;67.50
48551;DHT22;34397;51.176;6.738;2023-05-23T05:15:42;16.20;67.10
48551;DHT22;34397;51.176;6.738;2023-05-23T05:18:15;16.30;67.50
48551;DHT22;34397;51.176;6.738;2023-05-23T05:20:47;16.30;68.00
48551;DHT22;34397;51.176;6.738;2023-05-23T05:23:24;16.30;67.60
48551;DHT22;34397;51.176;6.738;2023-05-23T05:25:58;16.30;67.40
48551;DHT22;34397;51.176;6.738;2023-05-23T05:28:30;16.30;67.20
48551;DHT22;34397;51.176;6.738;2023-05-23T05:31:02;16.30;67.30
48551;DHT22;34397;51.176;6.738;2023-05-23T05:33:36;16.30;67.20
48551;DHT22;34397;51.176;6.738;2023-05-23T05:36:08;16.30;67.20
48551;DHT22;34397;51.176;6.738;2023-05-23T05:38:39;16.20;67.40
48551;DHT22;34397;51.176;6.738;2023-05-23T05:41:11;16.20;67.70
48551;DHT22;34397;51.176;6.738;2023-05-23T05:43:43;16.20;67.60
48551;DHT22;34397;51.176;6.738;2023-05-23T05:46:15;16.10;67.80
48551;DHT22;34397;51.176;6.738;2023-05-23T05:48:48;16.10;67.90
48551;DHT22;34397;51.176;6.738;2023-05-23T05:51:20;16.10;68.10
48551;DHT22;34397;51.176;6.738;2023-05-23T05:53:52;16.10;68.00
48551;DHT22;34397;51.176;6.738;2023-05-23T05:56:24;16.10;68.20
48551;DHT22;34397;51.176;6.738;2023-05-23T05:58:57;16.10;68.30
48551;DHT22;34397;51.176;6.738;2023-05-23T06:01:29;16.20;68.30
48551;DHT22;34397;51.176;6.738;2023-05-23T06:04:02;16.10;67.80
48551;DHT22;34397;51.176;6.738;2023-05-23T06:06:34;16.10;67.90
48551;DHT22;34397;51.176;6.738;2023-05-23T06:09:06;16.10;68.20
48551;DHT22;34397;51.176;6.738;2023-05-23T06:11:38;16.10;68.00
48551;DHT22;34397;51.176;6.738;2023-05-23T06:14:10;16.00;68.20
48551;DHT22;34397;51.176;6.738;2023-05-23T06:16:42;16.10;68.60
48551;DHT22;34397;51.176;6.738;2023-05-23T06:19:15;16.10;68.40
48551;DHT22;34397;51.176;6.738;2023-05-23T06:21:47;16.10;68.10
48551;DHT22;34397;51.176;6.738;2023-05-23T06:24:19;16.20;67.40
48551;DHT22;34397;51.176;6.738;2023-05-23T06:26:50;16.20;68.30
48551;DHT22;34397;51.176;6.738;2023-05-23T06:29:23;16.20;67.30
48551;DHT22;34397;51.176;6.738;2023-05-23T06:31:55;16.30;67.90
48551;DHT22;34397;51.176;6.738;2023-05-23T06:34:28;16.40;67.60
48551;DHT22;34397;51.176;6.738;2023-05-23T06:37:00;16.50;66.30
48551;DHT22;34397;51.176;6.738;2023-05-23T06:39:32;16.60;67.20
48551;DHT22;34397;51.176;6.738;2023-05-23T06:42:05;16.70;65.70
48551;DHT22;34397;51.176;6.738;2023-05-23T06:44:37;16.70;65.50
48551;DHT22;34397;51.176;6.738;2023-05-23T06:47:09;16.70;65.80
48551;DHT22;34397;51.176;6.738;2023-05-23T06:49:42;16.70;65.50
48551;DHT22;34397;51.176;6.738;2023-05-23T06:52:15;16.80;65.50
48551;DHT22;34397;51.176;6.738;2023-05-23T06:54:46;16.80;65.10
48551;DHT22;34397;51.176;6.738;2023-05-23T06:57:18;16.90;65.20
48551;DHT22;34397;51.176;6.738;2023-05-23T06:59:50;16.90;64.70
48551;DHT22;34397;51.176;6.738;2023-05-23T07:02:22;17.00;64.60
48551;DHT22;34397;51.176;6.738;2023-05-23T07:04:55;17.00;64.30
48551;DHT22;34397;51.176;6.738;2023-05-23T07:07:27;17.00;64.30
48551;DHT22;34397;51.176;6.738;2023-05-23T07:09:59;17.00;64.10
48551;DHT22;34397;51.176;6.738;2023-05-23T07:12:31;17.10;64.00
48551;DHT22;34397;51.176;6.738;2023-05-23T07:15:03;17.10;63.90
48551;DHT22;34397;51.176;6.738;2023-05-23T07:17:35;17.20;63.70
48551;DHT22;34397;51.176;6.738;2023-05-23T07:20:09;17.20;63.80
48551;DHT22;34397;51.176;6.738;2023-05-23T07:22:41;17.20;63.50
48551;DHT22;34397;51.176;6.738;2023-05-23T07:25:14;17.30;63.20
48551;DHT22;34397;51.176;6.738;2023-05-23T07:27:46;17.20;63.30
48551;DHT22;34397;51.176;6.738;2023-05-23T07:30:18;17.20;63.50
48551;DHT22;34397;51.176;6.738;2023-05-23T07:32:50;17.30;63.30
48551;DHT22;34397;51.176;6.738;2023-05-23T07:35:24;17.30;63.00
48551;DHT22;34397;51.176;6.738;2023-05-23T07:37:56;17.20;63.00
48551;DHT22;34397;51.176;6.738;2023-05-23T07:40:29;17.20;62.90
48551;DHT22;34397;51.176;6.738;2023-05-23T07:43:00;17.20;62.60
48551;DHT22;34397;51.176;6.738;2023-05-23T07:45:32;17.10;62.50
48551;DHT22;34397;51.176;6.738;2023-05-23T07:48:04;17.00;62.70
48551;DHT22;34397;51.176;6.738;2023-05-23T07:50:38;17.00;63.00
48551;DHT22;34397;51.176;6.738;2023-05-23T07:53:10;17.00;63.10
48551;DHT22;34397;51.176;6.738;2023-05-23T07:55:42;17.00;63.20
48551;DHT22;34397;51.176;6.738;2023-05-23T07:58:14;16.90;62.80
48551;DHT22;34397;51.176;6.738;2023-05-23T08:00:46;16.90;63.00
48551;DHT22;34397;51.176;6.738;2023-05-23T08:03:18;16.90;63.40
48551;DHT22;34397;51.176;6.738;2023-05-23T08:05:51;16.90;63.30
48551;DHT22;34397;51.176;6.738;2023-05-23T08:08:23;16.90;63.30
48551;DHT22;34397;51.176;6.738;2023-05-23T08:10:55;16.90;63.60
48551;DHT22;34397;51.176;6.738;2023-05-23T08:13:27;16.80;63.50
48551;DHT22;34397;51.176;6.738;2023-05-23T08:15:59;16.80;63.50
48551;DHT22;34397;51.176;6.738;2023-05-23T08:18:31;16.90;63.40
48551;DHT22;34397;51.176;6.738;2023-05-23T08:21:04;16.80;62.90
48551;DHT22;34397;51.176;6.738;2023-05-23T08:23:36;16.90;63.40
48551;DHT22;34397;51.176;6.738;2023-05-23T08:26:08;16.90;63.20
48551;DHT22;34397;51.176;6.738;2023-05-23T08:28:40;16.90;62.90
48551;DHT22;34397;51.176;6.738;2023-05-23T08:31:12;16.80;63.10
48551;DHT22;34397;51.176;6.738;2023-05-23T08:33:44;16.80;63.00
48551;DHT22;34397;51.176;6.738;2023-05-23T08:36:17;16.70;63.20
48551;DHT22;34397;51.176;6.738;2023-05-23T08:38:49;16.70;63.30
48551;DHT22;34397;51.176;6.738;2023-05-23T08:41:23;16.70;63.40
48551;DHT22;34397;51.176;6.738;2023-05-23T08:43:55;16.70;63.10
48551;DHT22;34397;51.176;6.738;2023-05-23T08:46:28;16.70;62.90
48551;DHT22;34397;51.176;6.738;2023-05-23T08:49:00;16.60;63.20
48551;DHT22;34397;51.176;6.738;2023-05-23T08:51:35;16.60;63.60
48551;DHT22;34397;51.176;6.738;2023-05-23T08:54:09;16.60;63.20
48551;DHT22;34397;51.176;6.738;2023-05-23T08:56:42;16.60;63.60
48551;DHT22;34397;51.176;6.738;2023-05-23T08:59:15;16.60;63.70
48551;DHT22;34397;51.176;6.738;2023-05-23T09:01:47;16.70;63.60
48551;DHT22;34397;51.176;6.738;2023-05-23T09:04:21;16.70;63.50
48551;DHT22;34397;51.176;6.738;2023-05-23T09:06:56;16.80;63.70
48551;DHT22;34397;51.176;6.738;2023-05-23T09:09:28;16.80;63.60
48551;DHT22;34397;51.176;6.738;2023-05-23T09:12:00;16.90;63.30
48551;DHT22;34397;51.176;6.738;2023-05-23T09:14:32;17.00;63.40
48551;DHT22;34397;51.176;6.738;2023-05-23T09:17:06;17.10;63.20
48551;DHT22;34397;51.176;6.738;2023-05-23T09:19:40;17.30;62.80
48551;DHT22;34397;51.176;6.738;2023-05-23T09:22:13;17.30;62.30
48551;DHT22;34397;51.176;6.738;2023-05-23T09:24:45;17.50;61.50
48551;DHT22;34397;51.176;6.738;2023-05-23T09:27:17;17.50;61.10
48551;DHT22;34397;51.176;6.738;2023-05-23T09:29:49;17.50;60.30
48551;DHT22;34397;51.176;6.738;2023-05-23T09:32:21;17.50;59.20
48551;DHT22;34397;51.176;6.738;2023-05-23T09:34:55;17.40;58.70
48551;DHT22;34397;51.176;6.738;2023-05-23T09:37:36;17.30;59.80
48551;DHT22;34397;51.176;6.738;2023-05-23T09:40:11;17.20;60.00
48551;DHT22;34397;51.176;6.738;2023-05-23T09:42:45;17.30;59.90
48551;DHT22;34397;51.176;6.738;2023-05-23T09:45:18;17.20;59.80
48551;DHT22;34397;51.176;6.738;2023-05-23T09:47:50;17.20;60.10
48551;DHT22;34397;51.176;6.738;2023-05-23T09:50:24;17.10;60.00
48551;DHT22;34397;51.176;6.738;2023-05-23T09:52:58;17.00;60.10
48551;DHT22;34397;51.176;6.738;2023-05-23T09:55:30;17.00;60.10
48551;DHT22;34397;51.176;6.738;2023-05-23T09:58:03;16.90;59.80
48551;DHT22;34397;51.176;6.738;2023-05-23T10:00:35;16.90;60.00
48551;DHT22;34397;51.176;6.738;2023-05-23T10:03:10;16.80;59.90
48551;DHT22;34397;51.176;6.738;2023-05-23T10:05:44;16.80;60.30
48551;DHT22;34397;51.176;6.738;2023-05-23T10:08:33;16.80;60.60
48551;DHT22;34397;51.176;6.738;2023-05-23T10:15:02;16.80;59.80
48551;DHT22;34397;51.176;6.738;2023-05-23T10:17:41;16.80;59.70
48551;DHT22;34397;51.176;6.738;2023-05-23T10:20:30;16.80;59.80
48551;DHT22;34397;51.176;6.738;2023-05-23T10:23:02;16.80;59.50
48551;DHT22;34397;51.176;6.738;2023-05-23T10:25:36;16.80;59.50
48551;DHT22;34397;51.176;6.738;2023-05-23T10:28:09;16.80;59.30
48551;DHT22;34397;51.176;6.738;2023-05-23T10:30:41;16.80;59.00
48551;DHT22;34397;51.176;6.738;2023-05-23T10:33:13;16.80;59.10
48551;DHT22;34397;51.176;6.738;2023-05-23T10:35:52;16.80;59.50
48551;DHT22;34397;51.176;6.738;2023-05-23T10:38:33;16.80;58.60
48551;DHT22;34397;51.176;6.738;2023-05-23T10:41:12;16.80;58.50
48551;DHT22;34397;51.176;6.738;2023-05-23T10:43:54;16.80;58.20
48551;DHT22;34397;51.176;6.738;2023-05-23T10:46:50;16.90;57.70
48551;DHT22;34397;51.176;6.738;2023-05-23T10:49:37;17.00;57.70
48551;DHT22;34397;51.176;6.738;2023-05-23T10:52:11;17.10;57.90
48551;DHT22;34397;51.176;6.738;2023-05-23T10:54:44;17.40;57.90
48551;DHT22;34397;51.176;6.738;2023-05-23T10:57:19;17.60;58.00
48551;DHT22;34397;51.176;6.738;2023-05-23T10:59:52;17.90;57.40
48551;DHT22;34397;51.176;6.738;2023-05-23T11:02:24;18.20;56.60
48551;DHT22;34397;51.176;6.738;2023-05-23T11:05:19;18.60;57.70
48551;DHT22;34397;51.176;6.738;2023-05-23T11:08:06;19.00;54.50
48551;DHT22;34397;51.176;6.738;2023-05-23T11:10:53;19.30;53.50
48551;DHT22;34397;51.176;6.738;2023-05-23T11:13:53;19.60;52.10
48551;DHT22;34397;51.176;6.738;2023-05-23T11:16:29;19.70;51.20
48551;DHT22;34397;51.176;6.738;2023-05-23T11:19:20;19.80;51.30
48551;DHT22;34397;51.176;6.738;2023-05-23T11:22:01;19.70;50.70
48551;DHT22;34397;51.176;6.738;2023-05-23T11:24:57;19.70;50.80
48551;DHT22;34397;51.176;6.738;2023-05-23T11:27:40;19.60;51.00
48551;DHT22;34397;51.176;6.738;2023-05-23T11:30:14;19.60;50.80
48551;DHT22;34397;51.176;6.738;2023-05-23T11:32:50;19.60;52.50
48551;DHT22;34397;51.176;6.738;2023-05-23T11:35:23;19.60;50.70
48551;DHT22;34397;51.176;6.738;2023-05-23T11:37:56;19.60;50.70
48551;DHT22;34397;51.176;6.738;2023-05-23T11:40:29;19.70;50.50
48551;DHT22;34397;51.176;6.738;2023-05-23T11:43:03;19.60;50.40
48551;DHT22;34397;51.176;6.738;2023-05-23T11:45:38;19.70;50.20
48551;DHT22;34397;51.176;6.738;2023-05-23T11:48:12;19.70;49.50
48551;DHT22;34397;51.176;6.738;2023-05-23T11:50:47;19.60;49.80
48551;DHT22;34397;51.176;6.738;2023-05-23T11:53:21;19.70;49.70
48551;DHT22;34397;51.176;6.738;2023-05-23T11:55:55;19.70;48.90
48551;DHT22;34397;51.176;6.738;2023-05-23T11:58:30;19.70;49.20
48551;DHT22;34397;51.176;6.738;2023-05-23T12:01:06;19.70;49.00
48551;DHT22;34397;51.176;6.738;2023-05-23T12:03:44;19.70;48.60
48551;DHT22;34397;51.176;6.738;2023-05-23T12:06:18;19.60;48.60
48551;DHT22;34397;51.176;6.738;2023-05-23T12:08:50;19.60;48.90
48551;DHT22;34397;51.176;6.738;2023-05-23T12:11:22;19.50;49.30
48551;DHT22;34397;51.176;6.738;2023-05-23T12:13:56;19.50;49.50
48551;DHT22;34397;51.176;6.738;2023-05-23T12:16:30;19.50;49.60
48551;DHT22;34397;51.176;6.738;2023-05-23T12:19:03;19.60;49.30
48551;DHT22;34397;51.176;6.738;2023-05-23T12:21:43;19.60;48.60
48551;DHT22;34397;51.176;6.738;2023-05-23T12:24:17;19.70;48.10
48551;DHT22;34397;51.176;6.738;2023-05-23T12:26:51;19.70;47.90
48551;DHT22;34397;51.176;6.738;2023-05-23T12:29:28;19.70;48.10
48551;DHT22;34397;51.176;6.738;2023-05-23T12:32:04;19.70;48.70
48551;DHT22;34397;51.176;6.738;2023-05-23T12:34:40;19.80;48.50
48551;DHT22;34397;51.176;6.738;2023-05-23T12:37:12;19.80;48.10
48551;DHT22;34397;51.176;6.738;2023-05-23T12:39:44;19.90;48.60
48551;DHT22;34397;51.176;6.738;2023-05-23T12:42:16;20.10;48.20
48551;DHT22;34397;51.176;6.738;2023-05-23T12:44:50;20.20;47.90
48551;DHT22;34397;51.176;6.738;2023-05-23T12:47:25;20.40;47.40
48551;DHT22;34397;51.176;6.738;2023-05-23T12:49:57;20.50;46.80
48551;DHT22;34397;51.176;6.738;2023-05-23T12:52:28;20.60;45.40
48551;DHT22;34397;51.176;6.738;2023-05-23T12:55:00;20.70;44.70
48551;DHT22;34397;51.176;6.738;2023-05-23T12:57:33;20.70;44.50
48551;DHT22;34397;51.176;6.738;2023-05-23T13:00:06;20.80;44.90
48551;DHT22;34397;51.176;6.738;2023-05-23T13:02:40;21.10;44.50
48551;DHT22;34397;51.176;6.738;2023-05-23T13:05:12;21.50;43.70
48551;DHT22;34397;51.176;6.738;2023-05-23T13:07:44;22.00;41.80
48551;DHT22;34397;51.176;6.738;2023-05-23T13:10:16;22.20;41.60
48551;DHT22;34397;51.176;6.738;2023-05-23T13:12:48;22.50;42.10
48551;DHT22;34397;51.176;6.738;2023-05-23T13:15:20;22.90;40.80
48551;DHT22;34397;51.176;6.738;2023-05-23T13:17:53;23.00;40.70
48551;DHT22;34397;51.176;6.738;2023-05-23T13:20:25;23.10;42.80
48551;DHT22;34397;51.176;6.738;2023-05-23T13:22:59;23.20;40.20
48551;DHT22;34397;51.176;6.738;2023-05-23T13:25:31;23.30;39.70
48551;DHT22;34397;51.176;6.738;2023-05-23T13:28:03;23.30;39.30
48551;DHT22;34397;51.176;6.738;2023-05-23T13:30:35;23.30;39.40
48551;DHT22;34397;51.176;6.738;2023-05-23T13:33:09;23.30;39.10
48551;DHT22;34397;51.176;6.738;2023-05-23T13:35:40;23.20;38.90
48551;DHT22;34397;51.176;6.738;2023-05-23T13:38:13;23.10;39.40
48551;DHT22;34397;51.176;6.738;2023-05-23T13:40:45;23.00;39.10
48551;DHT22;34397;51.176;6.738;2023-05-23T13:43:17;22.90;38.60
48551;DHT22;34397;51.176;6.738;2023-05-23T13:45:49;22.80;39.80
48551;DHT22;34397;51.176;6.738;2023-05-23T13:48:22;22.70;39.50
48551;DHT22;34397;51.176;6.738;2023-05-23T13:50:54;22.70;40.60
48551;DHT22;34397;51.176;6.738;2023-05-23T13:53:26;22.60;39.20
48551;DHT22;34397;51.176;6.738;2023-05-23T13:55:58;22.60;38.60
48551;DHT22;34397;51.176;6.738;2023-05-23T13:58:30;22.50;39.10
48551;DHT22;34397;51.176;6.738;2023-05-23T14:01:02;22.40;39.80
48551;DHT22;34397;51.176;6.738;2023-05-23T14:03:38;22.30;39.50
48551;DHT22;34397;51.176;6.738;2023-05-23T14:06:11;22.20;39.50
48551;DHT22;34397;51.176;6.738;2023-05-23T14:08:44;22.10;39.20
48551;DHT22;34397;51.176;6.738;2023-05-23T14:11:16;22.00;39.50
48551;DHT22;34397;51.176;6.738;2023-05-23T14:13:49;21.90;39.90
48551;DHT22;34397;51.176;6.738;2023-05-23T14:16:21;21.80;39.70
48551;DHT22;34397;51.176;6.738;2023-05-23T14:18:55;21.80;41.10
48551;DHT22;34397;51.176;6.738;2023-05-23T14:21:27;21.70;40.00
48551;DHT22;34397;51.176;6.738;2023-05-23T14:23:59;21.70;40.70
48551;DHT22;34397;51.176;6.738;2023-05-23T14:26:31;21.60;41.00
48551;DHT22;34397;51.176;6.738;2023-05-23T14:29:03;21.60;41.80
48551;DHT22;34397;51.176;6.738;2023-05-23T14:31:35;21.70;42.30
48551;DHT22;34397;51.176;6.738;2023-05-23T14:34:08;21.70;41.00
48551;DHT22;34397;51.176;6.738;2023-05-23T14:36:40;21.70;40.40
48551;DHT22;34397;51.176;6.738;2023-05-23T14:39:13;21.70;40.50
48551;DHT22;34397;51.176;6.738;2023-05-23T14:41:45;21.70;40.00
48551;DHT22;34397;51.176;6.738;2023-05-23T14:44:17;21.70;40.50
48551;DHT22;34397;51.176;6.738;2023-05-23T14:46:48;21.70;40.60
48551;DHT22;34397;51.176;6.738;2023-05-23T14:49:22;21.80;40.60
48551;DHT22;34397;51.176;6.738;2023-05-23T14:51:53;21.90;41.10
48551;DHT22;34397;51.176;6.738;2023-05-23T14:54:25;22.10;40.60
48551;DHT22;34397;51.176;6.738;2023-05-23T14:56:57;22.30;39.60
48551;DHT22;34397;51.176;6.738;2023-05-23T14:59:29;22.40;39.20
48551;DHT22;34397;51.176;6.738;2023-05-23T15:02:01;22.40;38.50
48551;DHT22;34397;51.176;6.738;2023-05-23T15:04:36;22.40;38.00
48551;DHT22;34397;51.176;6.738;2023-05-23T15:07:08;22.40;38.00
48551;DHT22;34397;51.176;6.738;2023-05-23T15:09:39;22.40;38.60
48551;DHT22;34397;51.176;6.738;2023-05-23T15:12:11;22.40;37.90
48551;DHT22;34397;51.176;6.738;2023-05-23T15:14:44;22.40;40.10
48551;DHT22;34397;51.176;6.738;2023-05-23T15:17:16;22.40;38.50
48551;DHT22;34397;51.176;6.738;2023-05-23T15:19:51;22.40;38.60
48551;DHT22;34397;51.176;6.738;2023-05-23T15:22:22;22.50;38.00
48551;DHT22;34397;51.176;6.738;2023-05-23T15:24:56;22.60;38.20
48551;DHT22;34397;51.176;6.738;2023-05-23T15:27:28;22.70;37.60
48551;DHT22;34397;51.176;6.738;2023-05-23T15:30:00;22.70;37.50
48551;DHT22;34397;51.176;6.738;2023-05-23T15:32:32;22.70;37.90
48551;DHT22;34397;51.176;6.738;2023-05-23T15:35:06;22.70;38.20
48551;DHT22;34397;51.176;6.738;2023-05-23T15:37:39;22.70;38.20
48551;DHT22;34397;51.176;6.738;2023-05-23T15:40:12;22.70;38.80
48551;DHT22;34397;51.176;6.738;2023-05-23T15:42:43;22.70;39.60
48551;DHT22;34397;51.176;6.738;2023-05-23T15:45:15;22.70;38.70
48551;DHT22;34397;51.176;6.738;2023-05-23T15:47:47;22.70;39.10
48551;DHT22;34397;51.176;6.738;2023-05-23T15:50:20;22.70;37.40
48551;DHT22;34397;51.176;6.738;2023-05-23T15:52:52;22.70;38.10
48551;DHT22;34397;51.176;6.738;2023-05-23T15:55:24;22.70;37.80
48551;DHT22;34397;51.176;6.738;2023-05-23T15:57:56;22.60;37.80
48551;DHT22;34397;51.176;6.738;2023-05-23T16:00:28;22.50;38.20
48551;DHT22;34397;51.176;6.738;2023-05-23T16:03:00;22.50;38.20
48551;DHT22;34397;51.176;6.738;2023-05-23T16:05:33;22.40;38.20
48551;DHT22;34397;51.176;6.738;2023-05-23T16:08:05;22.40;38.10
48551;DHT22;34397;51.176;6.738;2023-05-23T16:10:37;22.30;38.40
48551;DHT22;34397;51.176;6.738;2023-05-23T16:13:09;22.30;38.10